sensor_id;sensor_type;location;lat;lon;timestamp;P1;durP1;ratioP1;P2;durP2;ratioP2
68250;SDS011;55066;51.560;4.642;2023-05-24T00:01:40;8.25;;;1.63;;
68250;SDS011;55066;51.560;4.642;2023-05-24T00:04:07;8.40;;;1.90;;
68250;SDS011;55066;51.560;4.642;2023-05-24T00:06:35;10.70;;;1.73;;
68250;SDS011;55066;51.560;4.642;2023-05-24T00:09:02;13.73;;;2.28;;
68250;SDS011;55066;51.560;4.642;2023-05-24T00:11:28;13.93;;;2.08;;
68250;SDS011;55066;51.560;4.642;2023-05-24T00:13:53;10.05;;;1.92;;
68250;SDS011;55066;51.560;4.642;2023-05-24T00:16:19;6.50;;;1.33;;
68250;SDS011;55066;51.560;4.642;2023-05-24T00:18:44;8.75;;;2.03;;
68250;SDS011;55066;51.560;4.642;2023-05-24T00:21:11;8.43;;;1.50;;
68250;SDS011;55066;51.560;4.642;2023-05-24T00:23:37;7.78;;;1.67;;
68250;SDS011;55066;51.560;4.642;2023-05-24T00:26:03;6.25;;;2.10;;
68250;SDS011;55066;51.560;4.642;2023-05-24T00:28:29;10.52;;;1.90;;
68250;SDS011;55066;51.560;4.642;2023-05-24T00:30:58;8.00;;;1.63;;
68250;SDS011;55066;51.560;4.642;2023-05-24T00:33:24;7.80;;;1.67;;
68250;SDS011;55066;51.560;4.642;2023-05-24T00:35:52;12.73;;;1.70;;
68250;SDS011;55066;51.560;4.642;2023-05-24T00:38:26;6.20;;;1.80;;
68250;SDS011;55066;51.560;4.642;2023-05-24T00:40:52;9.60;;;1.85;;
68250;SDS011;55066;51.560;4.642;2023-05-24T00:43:21;6.50;;;1.90;;
68250;SDS011;55066;51.560;4.642;2023-05-24T00:45:49;11.90;;;1.90;;
68250;SDS011;55066;51.560;4.642;2023-05-24T00:48:39;4.75;;;1.42;;
68250;SDS011;55066;51.560;4.642;2023-05-24T00:51:05;8.93;;;1.33;;
68250;SDS011;55066;51.560;4.642;2023-05-24T00:53:31;11.20;;;1.80;;
68250;SDS011;55066;51.560;4.642;2023-05-24T00:55:57;8.30;;;1.50;;
68250;SDS011;55066;51.560;4.642;2023-05-24T00:58:24;7.30;;;1.42;;
68250;SDS011;55066;51.560;4.642;2023-05-24T01:00:56;10.38;;;1.65;;
68250;SDS011;55066;51.560;4.642;2023-05-24T01:03:24;9.38;;;1.70;;
68250;SDS011;55066;51.560;4.642;2023-05-24T01:05:53;5.72;;;1.50;;
68250;SDS011;55066;51.560;4.642;2023-05-24T01:11:19;9.55;;;1.60;;
68250;SDS011;55066;51.560;4.642;2023-05-24T01:14:03;4.75;;;1.50;;
68250;SDS011;55066;51.560;4.642;2023-05-24T01:19:53;6.88;;;1.58;;
68250;SDS011;55066;51.560;4.642;2023-05-24T01:27:51;9.00;;;2.03;;
68250;SDS011;55066;51.560;4.642;2023-05-24T01:30:16;6.85;;;1.85;;
68250;SDS011;55066;51.560;4.642;2023-05-24T01:32:42;4.13;;;1.63;;
68250;SDS011;55066;51.560;4.642;2023-05-24T01:35:08;6.40;;;1.50;;
68250;SDS011;55066;51.560;4.642;2023-05-24T01:37:34;8.50;;;2.17;;
68250;SDS011;55066;51.560;4.642;2023-05-24T01:39:59;10.50;;;1.90;;
68250;SDS011;55066;51.560;4.642;2023-05-24T01:42:26;8.15;;;1.92;;
68250;SDS011;55066;51.560;4.642;2023-05-24T01:45:04;8.02;;;1.90;;
68250;SDS011;55066;51.560;4.642;2023-05-24T01:47:54;9.60;;;2.13;;
68250;SDS011;55066;51.560;4.642;2023-05-24T01:50:33;13.88;;;2.58;;
68250;SDS011;55066;51.560;4.642;2023-05-24T01:53:03;9.80;;;2.58;;
68250;SDS011;55066;51.560;4.642;2023-05-24T01:55:32;14.52;;;2.92;;
68250;SDS011;55066;51.560;4.642;2023-05-24T01:58:01;10.52;;;2.45;;
68250;SDS011;55066;51.560;4.642;2023-05-24T02:00:28;13.07;;;3.00;;
68250;SDS011;55066;51.560;4.642;2023-05-24T02:02:55;8.27;;;2.38;;
68250;SDS011;55066;51.560;4.642;2023-05-24T02:05:21;10.52;;;2.65;;
68250;SDS011;55066;51.560;4.642;2023-05-24T02:07:47;8.70;;;2.17;;
68250;SDS011;55066;51.560;4.642;2023-05-24T02:10:13;6.77;;;2.13;;
68250;SDS011;55066;51.560;4.642;2023-05-24T02:12:38;11.77;;;2.80;;
68250;SDS011;55066;51.560;4.642;2023-05-24T02:15:05;7.72;;;2.20;;
68250;SDS011;55066;51.560;4.642;2023-05-24T02:17:31;14.15;;;2.92;;
68250;SDS011;55066;51.560;4.642;2023-05-24T02:19:57;11.80;;;2.67;;
68250;SDS011;55066;51.560;4.642;2023-05-24T02:22:27;8.65;;;2.30;;
68250;SDS011;55066;51.560;4.642;2023-05-24T02:24:53;12.50;;;2.60;;
68250;SDS011;55066;51.560;4.642;2023-05-24T02:27:19;12.25;;;2.70;;
68250;SDS011;55066;51.560;4.642;2023-05-24T02:29:44;13.37;;;2.57;;
68250;SDS011;55066;51.560;4.642;2023-05-24T02:32:11;9.82;;;2.50;;
68250;SDS011;55066;51.560;4.642;2023-05-24T02:34:37;10.60;;;2.50;;
68250;SDS011;55066;51.560;4.642;2023-05-24T02:37:03;13.10;;;2.57;;
68250;SDS011;55066;51.560;4.642;2023-05-24T02:39:29;14.77;;;2.20;;
68250;SDS011;55066;51.560;4.642;2023-05-24T02:41:54;10.60;;;2.60;;
68250;SDS011;55066;51.560;4.642;2023-05-24T02:44:20;7.47;;;2.00;;
68250;SDS011;55066;51.560;4.642;2023-05-24T02:46:45;10.90;;;2.83;;
68250;SDS011;55066;51.560;4.642;2023-05-24T02:49:11;7.73;;;2.10;;
68250;SDS011;55066;51.560;4.642;2023-05-24T02:51:36;6.00;;;2.13;;
68250;SDS011;55066;51.560;4.642;2023-05-24T02:54:02;10.63;;;2.20;;
68250;SDS011;55066;51.560;4.642;2023-05-24T02:56:28;9.77;;;2.33;;
68250;SDS011;55066;51.560;4.642;2023-05-24T02:58:54;7.68;;;2.30;;
68250;SDS011;55066;51.560;4.642;2023-05-24T03:01:20;9.07;;;2.30;;
68250;SDS011;55066;51.560;4.642;2023-05-24T03:03:47;7.93;;;2.20;;
68250;SDS011;55066;51.560;4.642;2023-05-24T03:06:13;8.20;;;2.13;;
68250;SDS011;55066;51.560;4.642;2023-05-24T03:08:39;7.43;;;2.30;;
68250;SDS011;55066;51.560;4.642;2023-05-24T03:11:05;8.60;;;2.10;;
68250;SDS011;55066;51.560;4.642;2023-05-24T03:13:32;9.18;;;2.30;;
68250;SDS011;55066;51.560;4.642;2023-05-24T03:15:58;9.47;;;2.30;;
68250;SDS011;55066;51.560;4.642;2023-05-24T03:18:23;10.33;;;1.80;;
68250;SDS011;55066;51.560;4.642;2023-05-24T03:20:50;9.15;;;2.67;;
68250;SDS011;55066;51.560;4.642;2023-05-24T03:23:15;10.10;;;2.30;;
68250;SDS011;55066;51.560;4.642;2023-05-24T03:25:41;10.40;;;2.10;;
68250;SDS011;55066;51.560;4.642;2023-05-24T03:28:08;5.07;;;1.90;;
68250;SDS011;55066;51.560;4.642;2023-05-24T03:30:33;10.47;;;2.30;;
68250;SDS011;55066;51.560;4.642;2023-05-24T03:32:59;8.00;;;1.90;;
68250;SDS011;55066;51.560;4.642;2023-05-24T03:35:24;8.03;;;2.40;;
68250;SDS011;55066;51.560;4.642;2023-05-24T03:37:50;7.10;;;1.70;;
68250;SDS011;55066;51.560;4.642;2023-05-24T03:40:17;7.45;;;2.28;;
68250;SDS011;55066;51.560;4.642;2023-05-24T03:43:05;9.30;;;2.15;;
68250;SDS011;55066;51.560;4.642;2023-05-24T03:45:57;6.23;;;1.80;;
68250;SDS011;55066;51.560;4.642;2023-05-24T03:48:23;12.45;;;2.30;;
68250;SDS011;55066;51.560;4.642;2023-05-24T03:50:50;10.27;;;2.03;;
68250;SDS011;55066;51.560;4.642;2023-05-24T03:53:16;10.20;;;2.15;;
68250;SDS011;55066;51.560;4.642;2023-05-24T03:55:41;12.57;;;2.30;;
68250;SDS011;55066;51.560;4.642;2023-05-24T03:58:07;9.87;;;2.50;;
68250;SDS011;55066;51.560;4.642;2023-05-24T04:00:32;9.38;;;2.38;;
68250;SDS011;55066;51.560;4.642;2023-05-24T04:02:58;8.63;;;2.57;;
68250;SDS011;55066;51.560;4.642;2023-05-24T04:05:26;9.77;;;2.50;;
68250;SDS011;55066;51.560;4.642;2023-05-24T04:07:54;13.52;;;2.47;;
68250;SDS011;55066;51.560;4.642;2023-05-24T04:10:20;10.33;;;2.23;;
68250;SDS011;55066;51.560;4.642;2023-05-24T04:12:47;11.85;;;2.17;;
68250;SDS011;55066;51.560;4.642;2023-05-24T04:15:13;12.13;;;2.95;;
68250;SDS011;55066;51.560;4.642;2023-05-24T04:17:41;9.67;;;2.37;;
68250;SDS011;55066;51.560;4.642;2023-05-24T04:20:08;10.55;;;2.80;;
68250;SDS011;55066;51.560;4.642;2023-05-24T04:22:34;13.55;;;3.28;;
68250;SDS011;55066;51.560;4.642;2023-05-24T04:25:03;9.38;;;2.92;;
68250;SDS011;55066;51.560;4.642;2023-05-24T04:27:30;11.40;;;2.83;;
68250;SDS011;55066;51.560;4.642;2023-05-24T04:29:55;13.05;;;2.55;;
68250;SDS011;55066;51.560;4.642;2023-05-24T04:32:21;10.20;;;2.53;;
68250;SDS011;55066;51.560;4.642;2023-05-24T04:34:47;11.27;;;2.35;;
68250;SDS011;55066;51.560;4.642;2023-05-24T04:37:14;8.32;;;2.15;;
68250;SDS011;55066;51.560;4.642;2023-05-24T04:39:43;7.75;;;2.28;;
68250;SDS011;55066;51.560;4.642;2023-05-24T04:42:10;10.50;;;2.67;;
68250;SDS011;55066;51.560;4.642;2023-05-24T04:44:37;12.40;;;2.90;;
68250;SDS011;55066;51.560;4.642;2023-05-24T04:47:04;7.78;;;2.60;;
68250;SDS011;55066;51.560;4.642;2023-05-24T04:49:30;16.20;;;3.35;;
68250;SDS011;55066;51.560;4.642;2023-05-24T04:51:58;10.80;;;2.47;;
68250;SDS011;55066;51.560;4.642;2023-05-24T04:54:23;13.23;;;2.80;;
68250;SDS011;55066;51.560;4.642;2023-05-24T04:56:49;12.43;;;2.87;;
68250;SDS011;55066;51.560;4.642;2023-05-24T04:59:14;11.68;;;2.92;;
68250;SDS011;55066;51.560;4.642;2023-05-24T05:01:40;10.50;;;3.00;;
68250;SDS011;55066;51.560;4.642;2023-05-24T05:04:05;15.30;;;2.90;;
68250;SDS011;55066;51.560;4.642;2023-05-24T05:06:32;12.15;;;2.63;;
68250;SDS011;55066;51.560;4.642;2023-05-24T05:09:03;11.85;;;3.05;;
68250;SDS011;55066;51.560;4.642;2023-05-24T05:11:37;10.35;;;2.97;;
68250;SDS011;55066;51.560;4.642;2023-05-24T05:14:03;11.65;;;2.88;;
68250;SDS011;55066;51.560;4.642;2023-05-24T05:16:29;17.92;;;3.40;;
68250;SDS011;55066;51.560;4.642;2023-05-24T05:18:56;11.90;;;3.25;;
68250;SDS011;55066;51.560;4.642;2023-05-24T05:21:21;17.13;;;3.40;;
68250;SDS011;55066;51.560;4.642;2023-05-24T05:23:47;13.30;;;3.40;;
68250;SDS011;55066;51.560;4.642;2023-05-24T05:26:12;12.80;;;3.60;;
68250;SDS011;55066;51.560;4.642;2023-05-24T05:28:38;13.63;;;2.83;;
68250;SDS011;55066;51.560;4.642;2023-05-24T05:31:03;17.00;;;3.53;;
68250;SDS011;55066;51.560;4.642;2023-05-24T05:33:30;11.70;;;3.15;;
68250;SDS011;55066;51.560;4.642;2023-05-24T05:35:56;18.98;;;3.63;;
68250;SDS011;55066;51.560;4.642;2023-05-24T05:38:22;15.88;;;3.55;;
68250;SDS011;55066;51.560;4.642;2023-05-24T05:40:47;17.27;;;3.03;;
68250;SDS011;55066;51.560;4.642;2023-05-24T05:43:13;18.10;;;3.72;;
68250;SDS011;55066;51.560;4.642;2023-05-24T05:45:38;17.50;;;3.10;;
68250;SDS011;55066;51.560;4.642;2023-05-24T05:48:07;15.73;;;3.87;;
68250;SDS011;55066;51.560;4.642;2023-05-24T05:50:32;17.65;;;3.58;;
68250;SDS011;55066;51.560;4.642;2023-05-24T05:52:58;13.57;;;3.65;;
68250;SDS011;55066;51.560;4.642;2023-05-24T05:55:23;14.95;;;3.42;;
68250;SDS011;55066;51.560;4.642;2023-05-24T05:57:49;14.33;;;3.27;;
68250;SDS011;55066;51.560;4.642;2023-05-24T06:00:15;14.67;;;3.53;;
68250;SDS011;55066;51.560;4.642;2023-05-24T06:02:41;21.52;;;3.13;;
68250;SDS011;55066;51.560;4.642;2023-05-24T06:05:06;13.63;;;3.13;;
68250;SDS011;55066;51.560;4.642;2023-05-24T06:07:32;17.83;;;3.40;;
68250;SDS011;55066;51.560;4.642;2023-05-24T06:09:58;17.20;;;2.80;;
68250;SDS011;55066;51.560;4.642;2023-05-24T06:12:23;23.50;;;3.70;;
68250;SDS011;55066;51.560;4.642;2023-05-24T06:14:49;13.23;;;3.55;;
68250;SDS011;55066;51.560;4.642;2023-05-24T06:17:16;19.10;;;3.22;;
68250;SDS011;55066;51.560;4.642;2023-05-24T06:19:42;14.43;;;3.25;;
68250;SDS011;55066;51.560;4.642;2023-05-24T06:22:08;15.90;;;3.35;;
68250;SDS011;55066;51.560;4.642;2023-05-24T06:24:33;20.57;;;3.50;;
68250;SDS011;55066;51.560;4.642;2023-05-24T06:26:59;18.00;;;3.03;;
68250;SDS011;55066;51.560;4.642;2023-05-24T06:29:24;9.68;;;2.45;;
68250;SDS011;55066;51.560;4.642;2023-05-24T06:31:50;14.85;;;2.90;;
68250;SDS011;55066;51.560;4.642;2023-05-24T06:34:16;19.75;;;2.83;;
68250;SDS011;55066;51.560;4.642;2023-05-24T06:36:45;14.73;;;2.93;;
68250;SDS011;55066;51.560;4.642;2023-05-24T06:39:12;10.38;;;2.50;;
68250;SDS011;55066;51.560;4.642;2023-05-24T06:41:38;11.93;;;2.30;;
68250;SDS011;55066;51.560;4.642;2023-05-24T06:44:04;13.45;;;2.38;;
68250;SDS011;55066;51.560;4.642;2023-05-24T06:46:30;10.40;;;2.40;;
68250;SDS011;55066;51.560;4.642;2023-05-24T06:48:56;16.75;;;2.70;;
68250;SDS011;55066;51.560;4.642;2023-05-24T06:51:22;18.92;;;2.78;;
68250;SDS011;55066;51.560;4.642;2023-05-24T06:53:47;15.48;;;3.33;;
68250;SDS011;55066;51.560;4.642;2023-05-24T06:56:13;15.10;;;2.80;;
68250;SDS011;55066;51.560;4.642;2023-05-24T06:58:39;18.38;;;2.50;;
68250;SDS011;55066;51.560;4.642;2023-05-24T07:01:04;18.77;;;2.80;;
68250;SDS011;55066;51.560;4.642;2023-05-24T07:03:30;12.17;;;2.77;;
68250;SDS011;55066;51.560;4.642;2023-05-24T07:05:58;11.73;;;2.47;;
68250;SDS011;55066;51.560;4.642;2023-05-24T07:08:24;17.87;;;2.67;;
68250;SDS011;55066;51.560;4.642;2023-05-24T07:10:49;18.98;;;2.95;;
68250;SDS011;55066;51.560;4.642;2023-05-24T07:13:18;19.27;;;3.20;;
68250;SDS011;55066;51.560;4.642;2023-05-24T07:15:44;14.98;;;2.85;;
68250;SDS011;55066;51.560;4.642;2023-05-24T07:18:11;19.35;;;2.58;;
68250;SDS011;55066;51.560;4.642;2023-05-24T07:20:37;15.85;;;2.58;;
68250;SDS011;55066;51.560;4.642;2023-05-24T07:23:02;14.60;;;2.80;;
68250;SDS011;55066;51.560;4.642;2023-05-24T07:25:28;17.80;;;2.83;;
68250;SDS011;55066;51.560;4.642;2023-05-24T07:27:54;16.33;;;2.90;;
68250;SDS011;55066;51.560;4.642;2023-05-24T07:30:20;17.20;;;2.63;;
68250;SDS011;55066;51.560;4.642;2023-05-24T07:32:45;14.07;;;4.07;;
68250;SDS011;55066;51.560;4.642;2023-05-24T07:35:11;19.05;;;3.53;;
68250;SDS011;55066;51.560;4.642;2023-05-24T07:37:38;19.48;;;3.42;;
68250;SDS011;55066;51.560;4.642;2023-05-24T07:40:04;13.97;;;3.23;;
68250;SDS011;55066;51.560;4.642;2023-05-24T07:42:34;18.80;;;3.20;;
68250;SDS011;55066;51.560;4.642;2023-05-24T07:45:00;13.55;;;2.70;;
68250;SDS011;55066;51.560;4.642;2023-05-24T07:47:25;14.90;;;2.57;;
68250;SDS011;55066;51.560;4.642;2023-05-24T07:49:51;14.50;;;2.78;;
68250;SDS011;55066;51.560;4.642;2023-05-24T07:52:17;11.77;;;2.70;;
68250;SDS011;55066;51.560;4.642;2023-05-24T07:54:42;11.95;;;2.88;;
68250;SDS011;55066;51.560;4.642;2023-05-24T07:57:08;13.40;;;2.90;;
68250;SDS011;55066;51.560;4.642;2023-05-24T07:59:33;11.60;;;2.70;;
68250;SDS011;55066;51.560;4.642;2023-05-24T08:01:59;13.65;;;2.83;;
68250;SDS011;55066;51.560;4.642;2023-05-24T08:04:25;13.75;;;2.78;;
68250;SDS011;55066;51.560;4.642;2023-05-24T08:06:51;11.13;;;2.60;;
68250;SDS011;55066;51.560;4.642;2023-05-24T08:09:16;10.67;;;2.80;;
68250;SDS011;55066;51.560;4.642;2023-05-24T08:11:42;11.43;;;2.67;;
68250;SDS011;55066;51.560;4.642;2023-05-24T08:14:07;10.57;;;2.60;;
68250;SDS011;55066;51.560;4.642;2023-05-24T08:16:33;10.37;;;2.73;;
68250;SDS011;55066;51.560;4.642;2023-05-24T08:18:58;12.67;;;3.27;;
68250;SDS011;55066;51.560;4.642;2023-05-24T08:21:24;16.23;;;3.40;;
68250;SDS011;55066;51.560;4.642;2023-05-24T08:23:49;12.70;;;3.20;;
68250;SDS011;55066;51.560;4.642;2023-05-24T08:26:15;8.37;;;2.63;;
68250;SDS011;55066;51.560;4.642;2023-05-24T08:28:43;9.00;;;2.35;;
68250;SDS011;55066;51.560;4.642;2023-05-24T08:31:08;12.70;;;3.07;;
68250;SDS011;55066;51.560;4.642;2023-05-24T08:33:34;13.05;;;3.20;;
68250;SDS011;55066;51.560;4.642;2023-05-24T08:35:59;12.40;;;2.77;;
68250;SDS011;55066;51.560;4.642;2023-05-24T08:38:25;12.23;;;2.80;;
68250;SDS011;55066;51.560;4.642;2023-05-24T08:40:50;10.90;;;2.22;;
68250;SDS011;55066;51.560;4.642;2023-05-24T08:43:16;10.70;;;2.50;;
68250;SDS011;55066;51.560;4.642;2023-05-24T08:45:43;14.32;;;2.50;;
68250;SDS011;55066;51.560;4.642;2023-05-24T08:48:09;10.32;;;2.58;;
68250;SDS011;55066;51.560;4.642;2023-05-24T08:50:37;10.23;;;2.87;;
68250;SDS011;55066;51.560;4.642;2023-05-24T08:53:03;8.30;;;1.92;;
68250;SDS011;55066;51.560;4.642;2023-05-24T08:55:30;8.10;;;2.10;;
68250;SDS011;55066;51.560;4.642;2023-05-24T08:57:57;10.18;;;2.17;;
68250;SDS011;55066;51.560;4.642;2023-05-24T09:00:24;10.15;;;2.13;;
68250;SDS011;55066;51.560;4.642;2023-05-24T09:02:50;6.57;;;2.40;;
68250;SDS011;55066;51.560;4.642;2023-05-24T09:05:16;8.05;;;2.17;;
68250;SDS011;55066;51.560;4.642;2023-05-24T09:07:42;12.10;;;2.30;;
68250;SDS011;55066;51.560;4.642;2023-05-24T09:10:09;11.77;;;2.77;;
68250;SDS011;55066;51.560;4.642;2023-05-24T09:12:35;15.43;;;3.25;;
68250;SDS011;55066;51.560;4.642;2023-05-24T09:15:02;10.32;;;2.35;;
68250;SDS011;55066;51.560;4.642;2023-05-24T09:17:31;10.30;;;2.40;;
68250;SDS011;55066;51.560;4.642;2023-05-24T09:19:58;8.55;;;2.20;;
68250;SDS011;55066;51.560;4.642;2023-05-24T09:22:24;11.10;;;2.57;;
68250;SDS011;55066;51.560;4.642;2023-05-24T09:24:51;10.43;;;2.90;;
68250;SDS011;55066;51.560;4.642;2023-05-24T09:27:17;12.88;;;3.03;;
68250;SDS011;55066;51.560;4.642;2023-05-24T09:29:47;8.50;;;2.70;;
68250;SDS011;55066;51.560;4.642;2023-05-24T09:32:14;8.90;;;2.95;;
68250;SDS011;55066;51.560;4.642;2023-05-24T09:34:40;9.38;;;3.28;;
68250;SDS011;55066;51.560;4.642;2023-05-24T09:37:09;11.70;;;3.20;;
68250;SDS011;55066;51.560;4.642;2023-05-24T09:39:45;14.07;;;3.28;;
68250;SDS011;55066;51.560;4.642;2023-05-24T09:42:18;9.23;;;2.47;;
68250;SDS011;55066;51.560;4.642;2023-05-24T09:45:06;8.25;;;2.80;;
68250;SDS011;55066;51.560;4.642;2023-05-24T09:47:34;12.18;;;2.60;;
68250;SDS011;55066;51.560;4.642;2023-05-24T09:50:02;8.88;;;2.65;;
68250;SDS011;55066;51.560;4.642;2023-05-24T09:52:28;11.43;;;2.70;;
68250;SDS011;55066;51.560;4.642;2023-05-24T09:54:53;8.23;;;2.80;;
68250;SDS011;55066;51.560;4.642;2023-05-24T09:57:19;13.07;;;3.20;;
68250;SDS011;55066;51.560;4.642;2023-05-24T09:59:50;11.18;;;2.80;;
68250;SDS011;55066;51.560;4.642;2023-05-24T10:02:16;16.20;;;3.13;;
68250;SDS011;55066;51.560;4.642;2023-05-24T10:04:45;13.25;;;2.90;;
68250;SDS011;55066;51.560;4.642;2023-05-24T10:07:11;8.83;;;2.80;;
68250;SDS011;55066;51.560;4.642;2023-05-24T10:09:37;10.88;;;2.40;;
68250;SDS011;55066;51.560;4.642;2023-05-24T10:12:06;11.63;;;2.97;;
68250;SDS011;55066;51.560;4.642;2023-05-24T10:14:33;10.05;;;2.80;;
68250;SDS011;55066;51.560;4.642;2023-05-24T10:17:06;11.82;;;2.53;;
68250;SDS011;55066;51.560;4.642;2023-05-24T10:19:32;8.20;;;2.42;;
68250;SDS011;55066;51.560;4.642;2023-05-24T10:21:58;10.77;;;3.00;;
68250;SDS011;55066;51.560;4.642;2023-05-24T10:24:27;9.32;;;2.90;;
68250;SDS011;55066;51.560;4.642;2023-05-24T10:26:56;12.65;;;3.45;;
68250;SDS011;55066;51.560;4.642;2023-05-24T10:29:26;12.45;;;3.53;;
68250;SDS011;55066;51.560;4.642;2023-05-24T10:32:01;10.40;;;3.22;;
68250;SDS011;55066;51.560;4.642;2023-05-24T10:34:28;11.77;;;3.13;;
68250;SDS011;55066;51.560;4.642;2023-05-24T10:36:55;10.25;;;2.60;;
68250;SDS011;55066;51.560;4.642;2023-05-24T10:39:23;10.73;;;2.75;;
68250;SDS011;55066;51.560;4.642;2023-05-24T10:41:49;9.80;;;2.92;;
68250;SDS011;55066;51.560;4.642;2023-05-24T10:44:17;13.05;;;3.10;;
68250;SDS011;55066;51.560;4.642;2023-05-24T10:47:00;10.93;;;3.50;;
68250;SDS011;55066;51.560;4.642;2023-05-24T10:49:27;12.18;;;3.30;;
68250;SDS011;55066;51.560;4.642;2023-05-24T10:51:59;11.93;;;3.23;;
68250;SDS011;55066;51.560;4.642;2023-05-24T10:54:26;16.63;;;3.28;;
68250;SDS011;55066;51.560;4.642;2023-05-24T10:56:52;12.53;;;3.53;;
68250;SDS011;55066;51.560;4.642;2023-05-24T10:59:31;12.90;;;3.10;;
68250;SDS011;55066;51.560;4.642;2023-05-24T11:02:09;12.60;;;3.10;;
68250;SDS011;55066;51.560;4.642;2023-05-24T11:04:39;10.00;;;3.00;;
68250;SDS011;55066;51.560;4.642;2023-05-24T11:07:10;9.70;;;2.75;;
68250;SDS011;55066;51.560;4.642;2023-05-24T11:09:38;11.73;;;3.15;;
68250;SDS011;55066;51.560;4.642;2023-05-24T11:12:14;10.45;;;2.50;;
68250;SDS011;55066;51.560;4.642;2023-05-24T11:14:50;9.57;;;2.80;;
68250;SDS011;55066;51.560;4.642;2023-05-24T11:17:20;10.02;;;2.47;;
68250;SDS011;55066;51.560;4.642;2023-05-24T11:19:50;11.40;;;2.92;;
68250;SDS011;55066;51.560;4.642;2023-05-24T11:22:18;9.02;;;2.53;;
68250;SDS011;55066;51.560;4.642;2023-05-24T11:24:48;7.72;;;2.60;;
68250;SDS011;55066;51.560;4.642;2023-05-24T11:27:14;7.33;;;2.13;;
68250;SDS011;55066;51.560;4.642;2023-05-24T11:29:43;12.82;;;2.58;;
68250;SDS011;55066;51.560;4.642;2023-05-24T11:32:17;9.67;;;3.07;;
68250;SDS011;55066;51.560;4.642;2023-05-24T11:34:47;7.70;;;2.30;;
68250;SDS011;55066;51.560;4.642;2023-05-24T11:37:13;14.13;;;2.78;;
68250;SDS011;55066;51.560;4.642;2023-05-24T11:39:39;13.35;;;2.40;;
68250;SDS011;55066;51.560;4.642;2023-05-24T11:42:06;8.90;;;2.30;;
68250;SDS011;55066;51.560;4.642;2023-05-24T11:44:33;7.20;;;2.50;;
68250;SDS011;55066;51.560;4.642;2023-05-24T11:46:59;7.95;;;2.33;;
68250;SDS011;55066;51.560;4.642;2023-05-24T11:49:26;8.80;;;2.65;;
68250;SDS011;55066;51.560;4.642;2023-05-24T11:51:53;10.07;;;2.63;;
68250;SDS011;55066;51.560;4.642;2023-05-24T11:54:20;10.67;;;2.60;;
68250;SDS011;55066;51.560;4.642;2023-05-24T11:56:46;11.48;;;3.00;;
68250;SDS011;55066;51.560;4.642;2023-05-24T11:59:22;9.57;;;2.70;;
68250;SDS011;55066;51.560;4.642;2023-05-24T12:04:27;9.32;;;2.50;;
68250;SDS011;55066;51.560;4.642;2023-05-24T12:06:53;8.23;;;2.30;;
68250;SDS011;55066;51.560;4.642;2023-05-24T12:09:19;12.35;;;2.67;;
68250;SDS011;55066;51.560;4.642;2023-05-24T12:11:46;11.77;;;2.53;;
68250;SDS011;55066;51.560;4.642;2023-05-24T12:14:13;8.82;;;2.53;;
68250;SDS011;55066;51.560;4.642;2023-05-24T12:16:44;9.63;;;2.72;;
68250;SDS011;55066;51.560;4.642;2023-05-24T12:19:16;9.77;;;3.17;;
68250;SDS011;55066;51.560;4.642;2023-05-24T12:21:45;8.67;;;2.43;;
68250;SDS011;55066;51.560;4.642;2023-05-24T12:24:15;9.90;;;2.50;;
68250;SDS011;55066;51.560;4.642;2023-05-24T12:26:44;10.27;;;2.90;;
68250;SDS011;55066;51.560;4.642;2023-05-24T12:29:11;9.18;;;2.60;;
68250;SDS011;55066;51.560;4.642;2023-05-24T12:31:40;11.48;;;2.85;;
68250;SDS011;55066;51.560;4.642;2023-05-24T12:34:10;9.20;;;2.60;;
68250;SDS011;55066;51.560;4.642;2023-05-24T12:36:37;12.02;;;2.85;;
68250;SDS011;55066;51.560;4.642;2023-05-24T12:41:52;9.65;;;2.67;;
68250;SDS011;55066;51.560;4.642;2023-05-24T12:44:22;9.07;;;2.87;;
68250;SDS011;55066;51.560;4.642;2023-05-24T12:46:49;15.10;;;3.42;;
68250;SDS011;55066;51.560;4.642;2023-05-24T12:49:17;8.02;;;2.83;;
68250;SDS011;55066;51.560;4.642;2023-05-24T12:51:43;8.57;;;3.03;;
68250;SDS011;55066;51.560;4.642;2023-05-24T12:54:08;15.97;;;3.23;;
68250;SDS011;55066;51.560;4.642;2023-05-24T12:56:33;13.53;;;3.23;;
68250;SDS011;55066;51.560;4.642;2023-05-24T12:58:59;13.20;;;2.80;;
68250;SDS011;55066;51.560;4.642;2023-05-24T13:01:25;9.32;;;2.92;;
68250;SDS011;55066;51.560;4.642;2023-05-24T13:03:51;10.32;;;2.95;;
68250;SDS011;55066;51.560;4.642;2023-05-24T13:06:17;10.15;;;3.60;;
68250;SDS011;55066;51.560;4.642;2023-05-24T13:08:43;12.63;;;3.10;;
68250;SDS011;55066;51.560;4.642;2023-05-24T13:11:08;8.77;;;3.50;;
68250;SDS011;55066;51.560;4.642;2023-05-24T13:13:34;9.70;;;3.13;;
68250;SDS011;55066;51.560;4.642;2023-05-24T13:15:59;8.63;;;3.17;;
68250;SDS011;55066;51.560;4.642;2023-05-24T13:18:25;10.67;;;3.80;;
68250;SDS011;55066;51.560;4.642;2023-05-24T13:20:50;10.73;;;3.70;;
68250;SDS011;55066;51.560;4.642;2023-05-24T13:23:16;7.28;;;3.47;;
68250;SDS011;55066;51.560;4.642;2023-05-24T13:25:42;8.10;;;3.37;;
68250;SDS011;55066;51.560;4.642;2023-05-24T13:28:08;9.38;;;3.25;;
68250;SDS011;55066;51.560;4.642;2023-05-24T13:30:34;10.68;;;3.40;;
68250;SDS011;55066;51.560;4.642;2023-05-24T13:33:00;14.02;;;3.58;;
68250;SDS011;55066;51.560;4.642;2023-05-24T13:35:25;11.07;;;3.20;;
68250;SDS011;55066;51.560;4.642;2023-05-24T13:37:51;8.60;;;2.97;;
68250;SDS011;55066;51.560;4.642;2023-05-24T13:40:18;11.65;;;3.50;;
68250;SDS011;55066;51.560;4.642;2023-05-24T13:42:43;14.13;;;3.83;;
68250;SDS011;55066;51.560;4.642;2023-05-24T13:45:10;13.45;;;3.60;;
68250;SDS011;55066;51.560;4.642;2023-05-24T13:47:36;15.73;;;3.67;;
68250;SDS011;55066;51.560;4.642;2023-05-24T13:50:02;8.65;;;3.20;;
68250;SDS011;55066;51.560;4.642;2023-05-24T13:52:30;11.88;;;3.70;;
68250;SDS011;55066;51.560;4.642;2023-05-24T13:54:56;9.57;;;3.70;;
68250;SDS011;55066;51.560;4.642;2023-05-24T13:57:22;11.77;;;3.87;;
68250;SDS011;55066;51.560;4.642;2023-05-24T13:59:47;10.93;;;3.33;;
68250;SDS011;55066;51.560;4.642;2023-05-24T14:02:14;12.00;;;3.60;;
68250;SDS011;55066;51.560;4.642;2023-05-24T14:04:41;11.43;;;3.50;;
68250;SDS011;55066;51.560;4.642;2023-05-24T14:07:07;9.33;;;3.47;;
68250;SDS011;55066;51.560;4.642;2023-05-24T14:09:33;14.80;;;3.67;;
68250;SDS011;55066;51.560;4.642;2023-05-24T14:12:01;9.98;;;3.30;;
68250;SDS011;55066;51.560;4.642;2023-05-24T14:14:27;12.02;;;3.53;;
68250;SDS011;55066;51.560;4.642;2023-05-24T14:16:52;10.63;;;3.83;;
68250;SDS011;55066;51.560;4.642;2023-05-24T14:19:19;13.52;;;3.50;;
68250;SDS011;55066;51.560;4.642;2023-05-24T14:21:45;12.60;;;3.43;;
68250;SDS011;55066;51.560;4.642;2023-05-24T14:24:10;11.82;;;3.65;;
68250;SDS011;55066;51.560;4.642;2023-05-24T14:26:36;14.13;;;3.30;;
68250;SDS011;55066;51.560;4.642;2023-05-24T14:29:01;8.97;;;2.97;;
68250;SDS011;55066;51.560;4.642;2023-05-24T14:31:27;10.77;;;3.70;;
68250;SDS011;55066;51.560;4.642;2023-05-24T14:33:52;10.63;;;3.97;;
68250;SDS011;55066;51.560;4.642;2023-05-24T14:36:17;12.23;;;4.07;;
68250;SDS011;55066;51.560;4.642;2023-05-24T14:38:43;10.10;;;3.77;;
68250;SDS011;55066;51.560;4.642;2023-05-24T14:41:08;10.23;;;3.17;;
68250;SDS011;55066;51.560;4.642;2023-05-24T14:43:34;12.70;;;4.10;;
68250;SDS011;55066;51.560;4.642;2023-05-24T14:46:01;12.53;;;3.50;;
68250;SDS011;55066;51.560;4.642;2023-05-24T14:48:27;17.45;;;4.13;;
68250;SDS011;55066;51.560;4.642;2023-05-24T14:50:52;15.43;;;3.97;;
68250;SDS011;55066;51.560;4.642;2023-05-24T14:53:18;11.07;;;3.93;;
68250;SDS011;55066;51.560;4.642;2023-05-24T14:55:43;9.95;;;3.92;;